In Rescue
 
Open Full Screen Window  High Contrast Mode
Wind Gusting 00 knots
09
November 19, 2019 12:11 PM CST
Weather Information
Wind Direction
  310 °
Wind Speed
  09 kt (10 mph)
Wind Gust
  00 kt (0 mph)
Altimeter
29.79 in
Visibility
10 SM
Temperature
03° C
37° F
Dewpoint
02° C
36° F
Humidity
93%
1hr Rain Fall
00.00 in.
24hr Rain Fall
00.05 in.
Sky Condition
Overcast @ 1,300 ft
MVFR

METAR KADC 191811Z AUTO 31009KT 10SM OVC013 03/02 A2979 RMK AO2

FAA Disclaimer: The data displayed is for advisory purposes only and is not to be used for flight planning or operations.